createdAt,value
2018-09-27T00:00:59.559Z,4.70
2018-09-27T00:03:28.303Z,4.60
2018-09-27T00:05:57.099Z,4.60
2018-09-27T00:08:25.900Z,4.50
2018-09-27T00:10:54.565Z,4.50
2018-09-27T00:13:23.192Z,4.50
2018-09-27T00:15:51.841Z,4.70
2018-09-27T00:18:20.475Z,4.60
2018-09-27T00:20:49.190Z,4.50
2018-09-27T00:23:17.861Z,4.50
2018-09-27T00:25:46.482Z,4.50
2018-09-27T00:28:15.282Z,4.50
2018-09-27T00:30:43.868Z,4.40
2018-09-27T00:33:12.388Z,4.50
2018-09-27T00:35:41.102Z,4.60
2018-09-27T00:38:09.703Z,4.70
2018-09-27T00:40:38.378Z,4.50
2018-09-27T00:43:07.114Z,4.60
2018-09-27T00:45:36.122Z,4.70
2018-09-27T00:48:04.771Z,4.90
2018-09-27T00:50:33.619Z,4.90
2018-09-27T00:53:02.566Z,4.80
2018-09-27T00:55:31.167Z,4.60
2018-09-27T00:57:59.675Z,4.50
2018-09-27T01:00:28.150Z,4.30
2018-09-27T01:02:56.600Z,4.20
2018-09-27T01:05:25.277Z,4.10
2018-09-27T01:07:53.966Z,4.10
2018-09-27T01:10:22.425Z,4.10
2018-09-27T01:12:50.899Z,4.20
2018-09-27T01:15:19.437Z,4.10
2018-09-27T01:17:47.885Z,4.00
2018-09-27T01:20:16.386Z,4.00
2018-09-27T01:22:44.847Z,4.00
2018-09-27T01:25:13.300Z,4.00
2018-09-27T01:27:41.765Z,3.90
2018-09-27T01:30:10.219Z,3.90
2018-09-27T01:32:38.897Z,4.00
2018-09-27T01:35:07.594Z,4.00
2018-09-27T01:37:36.037Z,3.90
2018-09-27T01:40:04.700Z,4.00
2018-09-27T01:42:33.255Z,4.00
2018-09-27T01:45:01.685Z,4.20
2018-09-27T01:47:30.321Z,4.20
2018-09-27T01:49:58.840Z,4.20
2018-09-27T01:52:27.311Z,4.30
2018-09-27T01:54:55.764Z,4.30
2018-09-27T01:57:24.195Z,4.20
2018-09-27T01:59:52.843Z,4.10
2018-09-27T02:02:21.515Z,4.10
2018-09-27T02:04:49.997Z,4.00
2018-09-27T02:07:18.543Z,3.90
2018-09-27T02:09:47.026Z,3.80
2018-09-27T02:12:15.958Z,3.80
2018-09-27T02:14:44.502Z,3.70
2018-09-27T02:17:13.228Z,3.70
2018-09-27T02:19:42.010Z,3.80
2018-09-27T02:22:10.569Z,4.00
2018-09-27T02:24:39.246Z,4.10
2018-09-27T02:27:07.856Z,3.90
2018-09-27T02:29:36.667Z,3.80
2018-09-27T02:32:05.477Z,3.70
2018-09-27T02:34:34.185Z,3.80
2018-09-27T02:37:02.668Z,3.80
2018-09-27T02:39:31.332Z,3.80
2018-09-27T02:42:00.015Z,3.80
2018-09-27T02:44:28.633Z,3.80
2018-09-27T02:46:57.534Z,3.70
2018-09-27T02:49:26.231Z,3.60
2018-09-27T02:51:54.785Z,3.50
2018-09-27T02:54:23.333Z,3.60
2018-09-27T02:56:51.839Z,3.70
2018-09-27T02:59:20.295Z,3.80
2018-09-27T03:01:49.120Z,3.80
2018-09-27T03:04:17.734Z,3.80
2018-09-27T03:06:46.208Z,3.90
2018-09-27T03:09:14.685Z,3.80
2018-09-27T03:11:43.353Z,3.70
2018-09-27T03:14:12.148Z,3.70
2018-09-27T03:16:40.601Z,3.60
2018-09-27T03:19:09.036Z,3.60
2018-09-27T03:21:37.566Z,3.50
2018-09-27T03:24:06.028Z,3.50
2018-09-27T03:26:34.556Z,3.40
2018-09-27T03:29:03.097Z,3.40
2018-09-27T03:31:31.811Z,3.40
2018-09-27T03:34:00.511Z,3.40
2018-09-27T03:36:29.034Z,3.40
2018-09-27T03:38:57.533Z,3.50
2018-09-27T03:41:26.585Z,3.40
2018-09-27T03:43:55.006Z,3.40
2018-09-27T03:46:23.476Z,3.50
2018-09-27T03:48:51.948Z,3.70
2018-09-27T03:51:20.502Z,3.70
2018-09-27T03:53:48.964Z,3.60
2018-09-27T03:56:17.592Z,3.50
2018-09-27T03:58:46.054Z,3.40
2018-09-27T04:01:14.541Z,3.40
2018-09-27T04:03:43.268Z,3.30
2018-09-27T04:06:11.830Z,3.30
2018-09-27T04:08:40.268Z,3.30
2018-09-27T04:11:08.759Z,3.30
2018-09-27T04:13:37.305Z,3.20
2018-09-27T04:16:05.885Z,3.20
2018-09-27T04:18:34.389Z,3.20
2018-09-27T04:21:02.939Z,3.20
2018-09-27T04:23:31.603Z,3.30
2018-09-27T04:26:00.299Z,3.20
2018-09-27T04:28:28.892Z,3.20
2018-09-27T04:30:57.477Z,3.40
2018-09-27T04:33:26.490Z,3.30
2018-09-27T04:35:55.224Z,3.40
2018-09-27T04:38:23.753Z,3.20
2018-09-27T04:40:52.365Z,3.20
2018-09-27T04:43:20.926Z,3.20
2018-09-27T04:45:49.413Z,3.10
2018-09-27T04:48:17.896Z,3.10
2018-09-27T04:50:46.623Z,3.20
2018-09-27T04:53:15.360Z,3.10
2018-09-27T04:55:43.907Z,3.10
2018-09-27T04:58:13.265Z,3.30
2018-09-27T05:00:41.858Z,3.10
2018-09-27T05:03:10.870Z,3.10
2018-09-27T05:05:39.940Z,3.00
2018-09-27T05:08:08.693Z,3.00
2018-09-27T05:10:37.456Z,2.90
2018-09-27T05:13:06.173Z,3.00
2018-09-27T05:15:34.865Z,3.00
2018-09-27T05:18:03.663Z,3.00
2018-09-27T05:20:32.394Z,2.90
2018-09-27T05:23:01.263Z,3.00
2018-09-27T05:25:30.000Z,3.00
2018-09-27T05:27:58.868Z,2.90
2018-09-27T05:30:27.554Z,2.90
2018-09-27T05:32:56.367Z,3.00
2018-09-27T05:35:25.082Z,3.10
2018-09-27T05:37:53.757Z,3.10
2018-09-27T05:40:22.361Z,3.20
2018-09-27T05:42:50.893Z,3.30
2018-09-27T05:45:19.583Z,3.50
2018-09-27T05:47:50.893Z,3.50
2018-09-27T05:50:19.642Z,3.60
2018-09-27T05:52:48.439Z,3.70
2018-09-27T05:55:20.477Z,3.80
2018-09-27T05:57:49.322Z,3.90
2018-09-27T06:00:20.036Z,3.90
2018-09-27T06:02:48.721Z,4.00
2018-09-27T06:05:17.284Z,4.10
2018-09-27T06:07:45.868Z,4.10
2018-09-27T06:10:14.453Z,4.20
2018-09-27T06:12:43.012Z,4.20
2018-09-27T06:15:11.816Z,4.30
2018-09-27T06:17:40.585Z,4.30
2018-09-27T06:20:09.257Z,4.40
2018-09-27T06:22:38.015Z,4.50
2018-09-27T06:25:06.686Z,4.60
2018-09-27T06:27:35.660Z,4.60
2018-09-27T06:30:04.648Z,4.70
2018-09-27T06:32:33.402Z,4.80
2018-09-27T06:35:02.393Z,4.90
2018-09-27T06:37:31.158Z,4.90
2018-09-27T06:39:59.823Z,4.90
2018-09-27T06:42:28.845Z,4.90
2018-09-27T06:44:57.543Z,5.00
2018-09-27T06:47:26.327Z,5.10
2018-09-27T06:49:55.135Z,5.20
2018-09-27T06:52:23.737Z,5.30
2018-09-27T06:54:52.435Z,5.50
2018-09-27T06:57:20.951Z,5.60
2018-09-27T06:59:49.619Z,5.70
2018-09-27T07:02:18.139Z,5.80
2018-09-27T07:04:46.713Z,5.90
2018-09-27T07:07:15.302Z,6.00
2018-09-27T07:09:43.892Z,6.10
2018-09-27T07:12:12.503Z,6.20
2018-09-27T07:14:41.039Z,6.40
2018-09-27T07:17:09.504Z,6.70
2018-09-27T07:19:38.072Z,7.00
2018-09-27T07:22:06.593Z,7.20
2018-09-27T07:24:35.176Z,7.80
2018-09-27T07:27:03.841Z,9.60
2018-09-27T07:29:32.383Z,11.70
2018-09-27T07:32:00.962Z,13.30
2018-09-27T07:34:29.698Z,15.30
2018-09-27T07:36:58.359Z,17.10
2018-09-27T07:39:26.964Z,18.90
2018-09-27T07:41:55.549Z,18.80
2018-09-27T07:44:24.060Z,19.20
2018-09-27T07:46:52.942Z,20.50
2018-09-27T07:49:21.677Z,21.70
2018-09-27T07:51:50.360Z,22.20
2018-09-27T07:54:19.036Z,22.90
2018-09-27T07:56:47.744Z,22.80
2018-09-27T07:59:16.537Z,24.30
2018-09-27T08:01:45.422Z,25.20
2018-09-27T08:04:14.072Z,24.60
2018-09-27T08:06:42.717Z,26.40
2018-09-27T08:09:11.535Z,26.40
2018-09-27T08:11:40.625Z,28.40
2018-09-27T08:14:09.578Z,28.40
2018-09-27T08:16:38.242Z,28.70
2018-09-27T08:19:06.863Z,29.00
2018-09-27T08:21:35.429Z,29.10
2018-09-27T08:24:04.369Z,30.00
2018-09-27T08:26:33.087Z,31.10
2018-09-27T08:29:01.737Z,32.10
2018-09-27T08:31:30.735Z,32.20
2018-09-27T08:33:59.431Z,31.70
2018-09-27T08:36:28.130Z,31.00
2018-09-27T08:38:56.827Z,30.90
2018-09-27T08:41:25.601Z,30.60
2018-09-27T08:43:54.223Z,31.70
2018-09-27T08:46:23.012Z,31.70
2018-09-27T08:48:51.606Z,30.60
2018-09-27T08:51:20.167Z,30.40
2018-09-27T08:53:48.914Z,31.10
2018-09-27T08:56:17.607Z,32.90
2018-09-27T08:58:46.308Z,32.70
2018-09-27T09:01:15.208Z,32.60
2018-09-27T09:03:43.946Z,31.70
2018-09-27T09:06:12.612Z,31.60
2018-09-27T09:08:41.407Z,31.90
2018-09-27T09:11:10.006Z,33.10
2018-09-27T09:13:38.651Z,34.10
2018-09-27T09:16:07.968Z,35.10
2018-09-27T09:18:36.519Z,34.60
2018-09-27T09:21:05.856Z,35.80
2018-09-27T09:23:34.773Z,36.40
2018-09-27T09:26:03.664Z,37.00
2018-09-27T09:28:32.551Z,36.70
2018-09-27T09:31:01.116Z,37.10
2018-09-27T09:33:29.732Z,37.60
2018-09-27T09:35:58.533Z,37.30
2018-09-27T09:38:27.562Z,38.00
2018-09-27T09:40:56.223Z,36.50
2018-09-27T09:43:24.904Z,37.10
2018-09-27T09:45:54.025Z,37.10
2018-09-27T09:48:22.744Z,36.60
2018-09-27T09:50:51.625Z,35.70
2018-09-27T09:53:20.307Z,35.60
2018-09-27T09:55:49.020Z,36.80
2018-09-27T09:58:17.769Z,37.60
2018-09-27T10:00:46.628Z,37.70
2018-09-27T10:03:15.242Z,36.10
2018-09-27T10:05:44.029Z,35.20
2018-09-27T10:08:12.699Z,35.40
2018-09-27T10:10:41.412Z,35.50
2018-09-27T10:13:10.435Z,36.40
2018-09-27T10:15:39.713Z,37.30
2018-09-27T10:18:09.045Z,36.50
2018-09-27T10:20:37.899Z,36.80
2018-09-27T10:23:06.954Z,36.00
2018-09-27T10:25:35.546Z,36.40
2018-09-27T10:28:04.351Z,37.40
2018-09-27T10:30:33.097Z,37.30
2018-09-27T10:33:01.630Z,37.30
2018-09-27T10:35:30.434Z,36.90
2018-09-27T10:37:59.368Z,35.20
2018-09-27T10:40:28.041Z,34.90
2018-09-27T10:42:56.855Z,35.20
2018-09-27T10:45:25.352Z,35.30
2018-09-27T10:47:53.874Z,36.20
2018-09-27T10:50:22.585Z,36.10
2018-09-27T10:52:51.181Z,36.00
2018-09-27T10:55:19.750Z,36.40
2018-09-27T10:57:48.444Z,36.90
2018-09-27T11:00:18.017Z,35.60
2018-09-27T11:02:47.571Z,34.50
2018-09-27T11:05:16.163Z,33.40
2018-09-27T11:07:45.174Z,33.00
2018-09-27T11:10:13.820Z,33.10
2018-09-27T11:12:42.665Z,33.30
2018-09-27T11:15:11.370Z,33.50
2018-09-27T11:17:40.178Z,33.00
2018-09-27T11:20:08.816Z,32.20
2018-09-27T11:22:37.735Z,32.00
2018-09-27T11:25:06.356Z,31.70
2018-09-27T11:27:35.144Z,31.30
2018-09-27T11:30:09.443Z,31.00
2018-09-27T11:32:41.356Z,30.50
2018-09-27T11:35:09.994Z,30.80
2018-09-27T11:37:38.652Z,30.00
2018-09-27T11:40:08.602Z,29.30
2018-09-27T11:42:37.707Z,28.50
2018-09-27T11:45:06.725Z,28.80
2018-09-27T11:47:35.360Z,29.10
2018-09-27T11:50:04.133Z,29.20
2018-09-27T11:52:32.667Z,29.00
2018-09-27T11:55:01.470Z,29.70
2018-09-27T11:57:30.000Z,29.50
2018-09-27T11:59:58.499Z,28.60
2018-09-27T12:02:26.992Z,28.20
2018-09-27T12:04:55.670Z,27.90
2018-09-27T12:07:24.039Z,27.80
2018-09-27T12:09:52.528Z,28.60
2018-09-27T12:12:23.364Z,28.90
2018-09-27T12:14:52.315Z,28.70
2018-09-27T12:17:20.754Z,28.70
2018-09-27T12:19:49.126Z,28.80
2018-09-27T12:22:17.749Z,29.10
2018-09-27T12:24:46.334Z,28.40
2018-09-27T12:27:14.804Z,28.30
2018-09-27T12:29:43.241Z,28.50
2018-09-27T12:32:11.675Z,28.90
2018-09-27T12:34:40.185Z,29.30
2018-09-27T12:37:08.879Z,29.00
2018-09-27T12:39:37.498Z,28.80
2018-09-27T12:42:05.990Z,29.40
2018-09-27T12:44:34.354Z,29.30
2018-09-27T12:47:02.861Z,29.10
2018-09-27T12:49:31.161Z,28.70
2018-09-27T12:51:59.763Z,28.30
2018-09-27T12:54:28.103Z,28.60
2018-09-27T12:56:56.551Z,28.70
2018-09-27T12:59:25.023Z,28.20
2018-09-27T13:01:53.622Z,27.90
2018-09-27T13:04:22.014Z,28.10
2018-09-27T13:06:50.490Z,28.30
2018-09-27T13:09:18.994Z,28.20
2018-09-27T13:11:47.330Z,28.70
2018-09-27T13:14:15.927Z,28.90
2018-09-27T13:16:44.356Z,28.90
2018-09-27T13:19:12.866Z,28.80
2018-09-27T13:21:41.352Z,28.60
2018-09-27T13:24:09.715Z,28.60
2018-09-27T13:26:38.353Z,28.80
2018-09-27T13:29:07.072Z,28.40
2018-09-27T13:31:35.922Z,27.80
2018-09-27T13:34:05.273Z,27.70
2018-09-27T13:36:33.903Z,27.80
2018-09-27T13:39:03.226Z,28.30
2018-09-27T13:41:34.148Z,28.60
2018-09-27T13:44:04.434Z,28.50
2018-09-27T13:46:33.868Z,28.40
2018-09-27T13:49:03.069Z,28.50
2018-09-27T13:51:31.954Z,28.40
2018-09-27T13:54:01.014Z,27.80
2018-09-27T13:56:29.967Z,27.90
2018-09-27T13:58:58.611Z,27.80
2018-09-27T14:01:27.159Z,27.80
2018-09-27T14:03:56.000Z,27.50
2018-09-27T14:06:24.955Z,27.10
2018-09-27T14:08:53.752Z,26.80
2018-09-27T14:11:22.653Z,26.50
2018-09-27T14:13:51.310Z,26.60
2018-09-27T14:16:20.034Z,26.70
2018-09-27T14:18:48.635Z,26.40
2018-09-27T14:21:17.545Z,26.20
2018-09-27T14:23:46.220Z,26.20
2018-09-27T14:26:14.857Z,26.00
2018-09-27T14:28:43.411Z,26.20
2018-09-27T14:31:13.106Z,26.10
2018-09-27T14:33:42.185Z,26.20
2018-09-27T14:36:10.794Z,26.00
2018-09-27T14:38:39.683Z,26.00
2018-09-27T14:41:08.346Z,25.80
2018-09-27T14:43:37.017Z,25.60
2018-09-27T14:46:05.539Z,25.50
2018-09-27T14:48:34.535Z,25.10
2018-09-27T14:51:03.305Z,24.70
2018-09-27T14:53:32.143Z,24.20
2018-09-27T14:56:52.742Z,23.90
2018-09-27T14:59:33.779Z,23.50
2018-09-27T15:02:09.155Z,23.20
2018-09-27T15:04:40.907Z,23.10
2018-09-27T15:07:09.278Z,23.00
2018-09-27T15:09:37.774Z,22.90
2018-09-27T15:12:06.204Z,22.90
2018-09-27T15:14:34.789Z,23.00
2018-09-27T15:17:03.393Z,22.90
2018-09-27T15:19:31.969Z,22.80
2018-09-27T15:22:00.675Z,22.80
2018-09-27T15:24:29.140Z,22.70
2018-09-27T15:26:58.019Z,22.50
2018-09-27T15:29:26.657Z,22.40
2018-09-27T15:31:55.199Z,22.40
2018-09-27T15:34:23.804Z,22.30
2018-09-27T15:36:52.308Z,22.20
2018-09-27T15:39:20.767Z,22.00
2018-09-27T15:41:49.408Z,22.00
2018-09-27T15:44:17.933Z,22.00
2018-09-27T15:46:46.407Z,22.00
2018-09-27T15:49:15.064Z,21.90
2018-09-27T15:51:43.504Z,21.80
2018-09-27T15:54:12.050Z,21.80
2018-09-27T15:56:40.461Z,21.80
2018-09-27T15:59:09.240Z,21.60
2018-09-27T16:01:37.693Z,21.60
2018-09-27T16:04:06.285Z,21.60
2018-09-27T16:06:34.786Z,21.50
2018-09-27T16:09:03.485Z,21.40
2018-09-27T16:11:32.155Z,21.30
2018-09-27T16:14:00.564Z,21.20
2018-09-27T16:16:29.161Z,21.10
2018-09-27T16:18:57.698Z,21.10
2018-09-27T16:21:26.153Z,21.00
2018-09-27T16:23:54.596Z,20.90
2018-09-27T16:26:23.294Z,20.80
2018-09-27T16:28:51.710Z,20.60
2018-09-27T16:31:21.089Z,20.50
2018-09-27T16:33:49.595Z,20.30
2018-09-27T16:36:18.185Z,20.10
2018-09-27T16:38:46.865Z,19.80
2018-09-27T16:41:15.720Z,19.50
2018-09-27T16:43:44.637Z,19.20
2018-09-27T16:46:14.574Z,18.90
2018-09-27T16:48:43.062Z,18.70
2018-09-27T16:51:11.512Z,18.40
2018-09-27T16:53:40.023Z,18.20
2018-09-27T16:56:08.498Z,17.90
2018-09-27T16:58:36.954Z,17.70
2018-09-27T17:01:05.721Z,17.40
2018-09-27T17:03:34.174Z,17.20
2018-09-27T17:06:03.776Z,16.90
2018-09-27T17:08:32.645Z,16.80
2018-09-27T17:11:01.129Z,16.50
2018-09-27T17:13:29.690Z,16.30
2018-09-27T17:15:58.151Z,16.10
2018-09-27T17:18:26.790Z,15.90
2018-09-27T17:20:55.262Z,15.80
2018-09-27T17:23:23.723Z,15.60
2018-09-27T17:25:52.276Z,15.40
2018-09-27T17:28:20.818Z,15.20
2018-09-27T17:30:49.289Z,15.10
2018-09-27T17:33:18.020Z,15.00
2018-09-27T17:35:46.658Z,14.80
2018-09-27T17:38:15.166Z,14.60
2018-09-27T17:40:44.923Z,14.50
2018-09-27T17:43:13.635Z,14.30
2018-09-27T17:45:42.366Z,14.10
2018-09-27T17:48:12.483Z,14.00
2018-09-27T17:50:41.017Z,13.90
2018-09-27T17:53:09.872Z,13.80
2018-09-27T17:55:38.357Z,13.60
2018-09-27T17:58:06.842Z,13.40
2018-09-27T18:00:35.791Z,13.30
2018-09-27T18:03:04.295Z,13.20
2018-09-27T18:05:32.814Z,13.10
2018-09-27T18:08:01.840Z,13.00
2018-09-27T18:10:30.481Z,12.90
2018-09-27T18:12:59.208Z,12.80
2018-09-27T18:15:27.833Z,12.70
2018-09-27T18:17:56.419Z,12.60
2018-09-27T18:20:25.285Z,12.50
2018-09-27T18:22:53.994Z,12.50
2018-09-27T18:25:22.491Z,12.50
2018-09-27T18:27:51.213Z,12.50
2018-09-27T18:30:19.946Z,12.40
2018-09-27T18:32:48.640Z,12.30
2018-09-27T18:35:17.500Z,12.20
2018-09-27T18:37:46.009Z,12.30
2018-09-27T18:40:15.038Z,12.50
2018-09-27T18:42:43.720Z,12.40
2018-09-27T18:45:12.313Z,12.30
2018-09-27T18:47:40.910Z,12.20
2018-09-27T18:50:09.966Z,12.10
2018-09-27T18:52:38.535Z,12.00
2018-09-27T18:55:07.847Z,11.90
2018-09-27T18:57:36.461Z,11.80
2018-09-27T19:00:05.691Z,11.80
2018-09-27T19:02:34.432Z,11.90
2018-09-27T19:05:03.129Z,12.10
2018-09-27T19:07:31.575Z,12.20
2018-09-27T19:10:00.153Z,12.20
2018-09-27T19:12:28.750Z,12.20
2018-09-27T19:14:57.188Z,12.10
2018-09-27T19:17:25.670Z,12.20
2018-09-27T19:19:54.180Z,12.20
2018-09-27T19:22:22.845Z,12.30
2018-09-27T19:24:51.307Z,12.30
2018-09-27T19:27:19.863Z,12.20
2018-09-27T19:29:48.364Z,12.20
2018-09-27T19:32:16.901Z,12.20
2018-09-27T19:34:45.343Z,12.10
2018-09-27T19:37:13.787Z,12.10
2018-09-27T19:39:42.245Z,11.90
2018-09-27T19:42:10.781Z,11.80
2018-09-27T19:44:39.272Z,11.60
2018-09-27T19:47:07.806Z,11.50
2018-09-27T19:49:36.405Z,11.60
2018-09-27T19:52:04.912Z,11.40
2018-09-27T19:54:33.386Z,11.40
2018-09-27T19:57:01.833Z,11.30
2018-09-27T19:59:31.749Z,11.00
2018-09-27T20:02:00.357Z,10.80
2018-09-27T20:04:28.992Z,10.70
2018-09-27T20:06:57.602Z,10.50
2018-09-27T20:09:26.601Z,10.40
2018-09-27T20:11:55.536Z,10.30
2018-09-27T20:14:24.065Z,10.30
2018-09-27T20:16:52.688Z,10.20
2018-09-27T20:19:21.303Z,10.10
2018-09-27T20:21:50.053Z,10.00
2018-09-27T20:24:18.598Z,9.90
2018-09-27T20:26:47.166Z,9.90
2018-09-27T20:29:15.918Z,9.90
2018-09-27T20:31:44.780Z,9.80
2018-09-27T20:34:14.798Z,9.80
2018-09-27T20:36:43.252Z,9.70
2018-09-27T20:39:12.151Z,9.60
2018-09-27T20:41:40.685Z,9.50
2018-09-27T20:44:10.711Z,9.50
2018-09-27T20:46:39.536Z,9.40
2018-09-27T20:49:08.377Z,9.40
2018-09-27T20:51:37.129Z,9.30
2018-09-27T20:54:05.729Z,9.30
2018-09-27T20:56:34.226Z,9.30
2018-09-27T20:59:02.853Z,9.50
2018-09-27T21:01:31.411Z,9.60
2018-09-27T21:04:00.051Z,9.70
2018-09-27T21:06:28.660Z,9.60
2018-09-27T21:08:57.189Z,9.40
2018-09-27T21:11:25.784Z,9.20
2018-09-27T21:13:54.416Z,9.10
2018-09-27T21:16:22.886Z,9.00
2018-09-27T21:18:51.579Z,8.90
2018-09-27T21:21:20.039Z,8.80
2018-09-27T21:23:48.569Z,8.80
2018-09-27T21:26:17.067Z,8.70
2018-09-27T21:28:45.966Z,8.70
2018-09-27T21:31:14.561Z,8.60
2018-09-27T21:33:43.176Z,8.60
2018-09-27T21:36:11.753Z,8.50
2018-09-27T21:38:40.270Z,8.50
2018-09-27T21:41:08.861Z,8.50
2018-09-27T21:43:37.578Z,8.40
2018-09-27T21:46:06.227Z,8.60
2018-09-27T21:48:34.744Z,8.60
2018-09-27T21:51:03.646Z,8.40
2018-09-27T21:53:32.544Z,8.30
2018-09-27T21:56:01.110Z,8.10
2018-09-27T21:58:29.578Z,8.00
2018-09-27T22:00:58.637Z,7.90
2018-09-27T22:03:27.128Z,7.80
2018-09-27T22:05:55.803Z,7.70
2018-09-27T22:08:24.317Z,7.70
2018-09-27T22:10:53.014Z,7.90
2018-09-27T22:13:21.700Z,7.70
2018-09-27T22:15:50.446Z,7.70
2018-09-27T22:18:19.042Z,7.70
2018-09-27T22:20:47.912Z,7.60
2018-09-27T22:23:16.482Z,7.60
2018-09-27T22:25:44.955Z,7.50
2018-09-27T22:28:13.569Z,7.40
2018-09-27T22:30:42.182Z,7.40
2018-09-27T22:33:10.872Z,7.30
2018-09-27T22:35:39.470Z,7.40
2018-09-27T22:38:08.159Z,7.20
2018-09-27T22:40:36.847Z,7.20
2018-09-27T22:43:05.448Z,7.30
2018-09-27T22:45:33.978Z,7.20
2018-09-27T22:48:02.464Z,7.20
2018-09-27T22:50:30.917Z,7.00
2018-09-27T22:52:59.531Z,7.10
2018-09-27T22:55:28.238Z,7.10
2018-09-27T22:57:56.886Z,7.10
2018-09-27T23:00:25.618Z,7.00
2018-09-27T23:02:54.145Z,7.00
2018-09-27T23:05:22.943Z,7.00
2018-09-27T23:07:51.520Z,6.90
2018-09-27T23:10:20.253Z,6.90
2018-09-27T23:12:48.676Z,6.90
2018-09-27T23:15:17.240Z,6.90
2018-09-27T23:17:45.662Z,6.70
2018-09-27T23:20:14.109Z,6.70
2018-09-27T23:22:42.546Z,6.60
2018-09-27T23:25:11.334Z,6.50
2018-09-27T23:27:39.971Z,6.50
2018-09-27T23:30:08.464Z,6.30
2018-09-27T23:32:36.954Z,6.30
2018-09-27T23:35:05.968Z,6.20
2018-09-27T23:37:34.466Z,6.10
2018-09-27T23:40:02.957Z,6.20
2018-09-27T23:42:31.453Z,6.10
2018-09-27T23:44:59.885Z,6.20
2018-09-27T23:47:28.367Z,6.30
2018-09-27T23:49:56.829Z,6.40
2018-09-27T23:52:25.255Z,6.40
2018-09-27T23:54:53.972Z,6.50
2018-09-27T23:57:22.406Z,6.60
2018-09-27T23:59:50.862Z,6.60
